• Join FlightAware (Why Join?)
  • Login
  • US Flag 
07:19PM EDT


 

Airport Tracker/Info


-or-


 

Live Flight TrackerFlight Track Log ✈ N490ER ✈ 16-May-2013 ✈ KDAB - KVQQ

Flight Track Log - Related Links

Times and Time Zones

All times are in EDT time to prevent confusion due to time zone crossing. See the N490ER flight status page for this flight to view local times or setup timezone preferences in your user account.

Time Position Orientation Groundspeed Altitude Reporting Facility
EDT Latitude Longitude Course Direction KTS MPH feet Rate Location/Type
02:40PM 29.2175 -81.0272 19° North 93 107 1,600  Level Jacksonville Center
02:41PM 29.2422 -81.0172 19° North 89 102 2,300 660 Climbing Jacksonville Center
02:42PM 29.2656 -81.0264 341° North 88 101 3,100 600 Climbing Jacksonville Center
02:43PM 29.2886 -81.0378 337° Northwest 86 99 3,600 180 Climbing Jacksonville Center
02:45PM 29.3158 -81.0517 336° Northwest 104 120 3,500 -60 Descending Jacksonville Center
02:46PM 29.3453 -81.0653 338° Northwest 106 122 3,500  Level Jacksonville Center
02:47PM 29.3725 -81.0767 340° North 105 121 3,500 240 Level Jacksonville Center
02:48PM 29.3978 -81.0858 342° North 96 110 4,100 540 Climbing Jacksonville Center
02:49PM 29.4231 -81.0997 334° Northwest 95 109 4,600 180 Climbing Jacksonville Center
02:50PM 29.4483 -81.1133 335° Northwest 107 123 4,500 -60 Descending Jacksonville Center
02:51PM 29.4756 -81.1272 336° Northwest 111 128 4,500  Level Jacksonville Center
02:52PM 29.5050 -81.1433 335° Northwest 106 122 4,500  Level Jacksonville Center
02:53PM 29.5303 -81.1597 331° Northwest 105 121 4,600  Climbing Jacksonville Center
02:54PM 29.5536 -81.1808 322° Northwest 109 125 4,500 -60 Descending Jacksonville Center
02:55PM 29.5769 -81.2019 322° Northwest 113 130 4,500  Level Jacksonville Center
02:56PM 29.5958 -81.2303 307° West 112 129 4,500  Level Jacksonville Center
02:57PM 29.6214 -81.2536 322° Northwest 109 125 4,600  Climbing Jacksonville Center
02:58PM 29.6425 -81.2700 326° Northwest 107 123 4,500 -120 Descending Jacksonville Center
02:58PM 29.6614 -81.2911 316° Northwest 110 127 4,400 -60 Descending Jacksonville Center
03:00PM 29.6911 -81.3219 318° Northwest 112 129 4,400 -120 Level Jacksonville Center
03:01PM 29.7122 -81.3406 323° Northwest 111 128 4,200 -420 Descending Jacksonville Center
03:02PM 29.7375 -81.3689 316° Northwest 121 139 3,700 -540 Descending Jacksonville Center
03:03PM 29.7631 -81.3947 319° Northwest 117 135 3,100 -480 Descending Jacksonville Center
03:04PM 29.7861 -81.4161 321° Northwest 112 129 2,800 -420 Descending Jacksonville Center
03:05PM 29.8136 -81.4444 318° Northwest 116 133 2,300 -240 Descending Jacksonville Center
03:06PM 29.8347 -81.4656 319° Northwest 111 128 2,400  Climbing Jacksonville Center
03:07PM 29.8581 -81.4939 314° West 114 131 2,400 -60 Level Jacksonville Center
03:08PM 29.8792 -81.5153 319° Northwest 112 129 2,300  Descending Jacksonville Center
03:09PM 29.9022 -81.5414 316° Northwest 107 123 2,500  Climbing Jacksonville Center
03:10PM 29.9278 -81.5697 316° Northwest 106 122 2,400 -60 Descending Jacksonville Center
03:11PM 29.9467 -81.5933 313° West 109 125 2,400  Level Jacksonville Center
03:12PM 29.9719 -81.6194 318° Northwest 106 122 2,500  Climbing Jacksonville Center
03:13PM 29.9953 -81.6383 325° Northwest 109 125 2,500  Level Jacksonville Center
03:14PM 30.0183 -81.6644 316° Northwest 109 125 2,500  Level Jacksonville Center
03:15PM 30.0375 -81.6881 313° West 109 125 2,500  Level Jacksonville Center
03:16PM 30.0628 -81.7117 321° Northwest 106 122 2,500 -120 Level Jacksonville Center
03:17PM 30.0881 -81.7331 324° Northwest 118 136 2,300 -120 Descending Jacksonville Center
03:18PM 30.1111 -81.7617 313° West 116 133 2,300 -120 Level Jacksonville Center
03:19PM 30.1386 -81.7806 329° Northwest 117 135 2,100 -540 Descending Jacksonville Center
03:20PM 30.1617 -81.8067 316° Northwest 113 130 1,200 -600 Descending Jacksonville Center
03:21PM 30.1850 -81.8353 313° West 113 130 1,000 -180 Descending Jacksonville Center
03:22PM 30.2100 -81.8469 338° Northwest 112 129 900 -120 Descending Jacksonville Center
03:23PM 30.2392 -81.8492 356° North 101 116 800 -240 Descending Jacksonville Center
03:24PM 30.2519 -81.8658 312° West 82 94 500 -300 Descending Jacksonville Center
03:26PM 30.2167 -81.8667 319° Northwest  Level FlightAware Approximate
03:33PM 30.2188 -81.8772 319° Northwest  Level Estimated
03:34PM 30.2188 -81.8772 319° Northwest  Level Estimated